Home > Products > Valid Products > TAF

000
FTUS43 KLOT 200200 AAA
TAFORD
TAF AMD
KORD 200258Z 2003/2106 12008KT P6SM BKN300
     FM201000 17008KT P6SM BKN300
     FM201600 20012KT P6SM BKN120=



000
FTUS43 KLOT 200200 AAA
TAFMDW
TAF AMD
KMDW 200258Z 2003/2024 15008KT P6SM BKN300
     FM201500 20012KT P6SM BKN120=



000
FTUS43 KLOT 200200 AAA
TAFRFD
TAF AMD
KRFD 200258Z 2003/2024 16010KT P6SM BKN300
     FM201500 20012G16KT P6SM BKN120=



000
FTUS43 KLOT 200200 AAA
TAFGYY
TAF AMD
KGYY 200258Z 2003/2024 12008KT P6SM BKN300
     FM201200 16008KT P6SM BKN250
     FM201600 18012KT P6SM BKN120=



000
FTUS43 KLOT 200200 AAA
TAFDPA
TAF AMD
KDPA 200258Z 2003/2024 15008KT P6SM BKN300
     FM201600 19012KT P6SM BKN120=



000
FTUS43 KLOT 192300
TAFMDW
TAF
KMDW 192320Z 2000/2024 10010KT P6SM BKN300
     FM200400 15006KT P6SM BKN300
     FM201500 20012KT P6SM BKN120=



000
FTUS43 KLOT 192300
TAFDPA
TAF
KDPA 192320Z 2000/2024 15008KT P6SM BKN300
     FM201600 19012KT P6SM BKN120=



000
FTUS43 KLOT 192300
TAFRFD
TAF
KRFD 192320Z 2000/2024 16010KT P6SM BKN300
     FM201500 20012G16KT P6SM BKN120=



000
FTUS43 KLOT 192300
TAFORD
TAF
KORD 192320Z 2000/2106 14010KT P6SM BKN300
     FM200700 18006KT P6SM BKN300
     FM201600 20012KT P6SM BKN120=



000
FTUS43 KLOT 192300
TAFGYY
TAF
KGYY 192320Z 2000/2024 VRB04KT P6SM BKN300
     FM200200 12008KT P6SM BKN300
     FM201200 16008KT P6SM BKN250
     FM201600 18012KT P6SM BKN120=



000
FTUS43 KLOT 192200 AAB
TAFRFD
TAF AMD
KRFD 192208Z 1922/2018 16010KT P6SM BKN300
     FM201500 20012G16KT P6SM BKN120=



000
FTUS43 KLOT 192200 AAB
TAFDPA
TAF AMD
KDPA 192208Z 1922/2018 15008KT P6SM BKN300
     FM201600 19012KT P6SM BKN120=



000
FTUS43 KLOT 192200 AAB
TAFGYY
TAF AMD
KGYY 192208Z 1922/2018 03006KT P6SM BKN300
     FM200100 12008KT P6SM BKN300
     FM201200 16008KT P6SM BKN250
     FM201600 18012KT P6SM BKN120=



000
FTUS43 KLOT 192200 AAB
TAFMDW
TAF AMD
KMDW 192208Z 1922/2018 10010KT P6SM BKN300
     FM200400 18006KT P6SM BKN300
     FM201600 20012KT P6SM BKN120=



000
FTUS43 KLOT 192200 AAB
TAFORD
TAF AMD
KORD 192208Z 1922/2024 14010KT P6SM BKN300
     FM200400 18006KT P6SM BKN300
     FM201600 20012KT P6SM BKN120=



000
FTUS43 KLOT 191900 AAA
TAFMDW
TAF AMD
KMDW 191953Z 1920/2018 13010KT P6SM FEW300
     FM201200 16008KT P6SM SCT250
     FM201700 19009G15KT P6SM SCT180=



000
FTUS43 KLOT 191900 AAA
TAFRFD
TAF AMD
KRFD 191953Z 1920/2018 16010G16KT P6SM FEW300
     FM200200 17009KT P6SM SCT250
     FM201000 20011KT P6SM SCT250
     FM201700 21010G17KT P6SM SCT180=



000
FTUS43 KLOT 191900 AAA
TAFGYY
TAF AMD
KGYY 191953Z 1920/2018 04008KT P6SM FEW300
     FM200100 12008KT P6SM FEW300
     FM201200 16007KT P6SM SCT250
     FM201700 18008G15KT P6SM SCT180=



000
FTUS43 KLOT 191900 AAA
TAFDPA
TAF AMD
KDPA 191953Z 1920/2018 12010KT P6SM FEW300
     FM192300 14010KT P6SM FEW300
     FM201200 16008KT P6SM SCT250
     FM201700 19009G15KT P6SM SCT180=



000
FTUS43 KLOT 191900 AAA
TAFORD
TAF AMD
KORD 191953Z 1920/2024 13010KT P6SM FEW300
     FM201200 16008KT P6SM SCT250
     FM201700 19009G15KT P6SM SCT180=



000
FTUS43 KLOT 191700
TAFORD
TAF
KORD 191735Z 1918/2024 10010KT P6SM FEW300
     FM192000 13010KT P6SM FEW300
     FM201200 16008KT P6SM SCT250
     FM201700 19009G15KT P6SM SCT180=



000
FTUS43 KLOT 191700
TAFGYY
TAF
KGYY 191735Z 1918/2018 04010KT P6SM FEW300
     FM192100 12009KT P6SM FEW300
     FM200100 15007KT P6SM SCT250=



000
FTUS43 KLOT 191700
TAFDPA
TAF
KDPA 191735Z 1918/2018 10010KT P6SM FEW300
     FM192100 14010KT P6SM FEW300
     FM201200 16008KT P6SM SCT250
     FM201700 19009G15KT P6SM SCT180=



000
FTUS43 KLOT 191700
TAFMDW
TAF
KMDW 191735Z 1918/2018 10010KT P6SM FEW300
     FM192000 13010KT P6SM FEW300
     FM201200 16008KT P6SM SCT250
     FM201700 19009G15KT P6SM SCT180=



000
FTUS43 KLOT 191700
TAFRFD
TAF
KRFD 191735Z 1918/2018 16010G16KT P6SM FEW300
     FM200200 17009KT P6SM SCT250
     FM201000 20011KT P6SM SCT250
     FM201700 21010G17KT P6SM SCT180=



000
FTUS43 KLOT 191500 AAB
TAFGYY
TAF AMD
KGYY 191556Z 1916/2012 04007KT P6SM FEW300
     FM192100 10009KT P6SM FEW300
     FM200100 15007KT P6SM SCT250=



000
FTUS43 KLOT 191500 AAB
TAFORD
TAF AMD
KORD 191556Z 1916/2018 09010KT P6SM FEW300
     FM191800 12010KT P6SM FEW300
     FM200100 16008KT P6SM SCT250
     FM201400 19010KT P6SM SCT250=



000
FTUS43 KLOT 191500 AAB
TAFMDW
TAF AMD
KMDW 191556Z 1916/2012 09010KT P6SM FEW300
     FM191800 12010KT P6SM FEW300
     FM200100 16008KT P6SM SCT250=



000
FTUS43 KLOT 191500 AAB
TAFDPA
TAF AMD
KDPA 191556Z 1916/2012 09007KT P6SM FEW300
     FM191800 12010KT P6SM FEW300
     FM200100 15008KT P6SM SCT250=



000
FTUS43 KLOT 191500 AAB
TAFRFD
TAF AMD
KRFD 191556Z 1916/2012 11010KT P6SM FEW300
     FM191800 16012G17KT P6SM FEW300
     FM200200 17009KT P6SM SCT250=



000
FTUS43 KLOT 191400 AAA
TAFMDW
TAF AMD
KMDW 191411Z 1914/2012 09010KT P6SM FEW300
     FM191600 12010KT P6SM FEW300
     FM200100 16008KT P6SM SCT250=



000
FTUS43 KLOT 191400 AAA
TAFDPA
TAF AMD
KDPA 191411Z 1914/2012 09007KT P6SM FEW300
     FM191600 12010KT P6SM FEW300
     FM200100 15008KT P6SM SCT250=



000
FTUS43 KLOT 191400 AAA
TAFGYY
TAF AMD
KGYY 191411Z 1914/2012 04007KT P6SM FEW300
     FM192100 10009KT P6SM FEW300
     FM200100 15007KT P6SM SCT250=



000
FTUS43 KLOT 191400 AAA
TAFORD
TAF AMD
KORD 191411Z 1914/2018 09010KT P6SM FEW300
     FM191600 12010KT P6SM FEW300
     FM200100 16008KT P6SM SCT250
     FM201400 19010KT P6SM SCT250=



000
FTUS43 KLOT 191400 AAA
TAFRFD
TAF AMD
KRFD 191411Z 1914/2012 11010KT P6SM FEW300
     FM191600 16012G17KT P6SM FEW300
     FM200200 17009KT P6SM SCT250=



000
FTUS43 KLOT 191100
TAFRFD
TAF
KRFD 191120Z 1912/2012 09008KT P6SM FEW300
     FM191600 16012G17KT P6SM FEW300
     FM200200 17009KT P6SM SCT250=



000
FTUS43 KLOT 191100
TAFGYY
TAF
KGYY 191120Z 1912/2012 04007KT P6SM FEW300
     FM192100 10009KT P6SM FEW300
     FM200100 15007KT P6SM SCT250=



000
FTUS43 KLOT 191100
TAFMDW
TAF
KMDW 191120Z 1912/2012 07007KT P6SM FEW300
     FM191600 12010KT P6SM FEW300
     FM200100 16008KT P6SM SCT250=



000
FTUS43 KLOT 191100
TAFORD
TAF
KORD 191120Z 1912/2018 07007KT P6SM FEW300
     FM191600 12010KT P6SM FEW300
     FM200100 16008KT P6SM SCT250
     FM201400 19010KT P6SM SCT250=



000
FTUS43 KLOT 191100
TAFDPA
TAF
KDPA 191120Z 1912/2012 07007KT P6SM FEW300
     FM191600 12010KT P6SM FEW300
     FM200100 15008KT P6SM SCT250=



000
FTUS43 KLOT 190900 AAA
TAFRFD
TAF AMD
KRFD 190900Z 1909/2006 09007KT P6SM FEW300
     FM191630 16012KT P6SM SCT300
     FM200200 15008KT P6SM SCT300=



000
FTUS43 KLOT 190900 AAA
TAFORD
TAF AMD
KORD 190900Z 1909/2012 07006KT P6SM SKC
     FM191500 11010KT P6SM FEW300
     FM200100 15010KT P6SM SCT300
     FM200800 18007KT P6SM SCT250=



000
FTUS43 KLOT 190900 AAA
TAFMDW
TAF AMD
KMDW 190900Z 1909/2006 06007KT P6SM SKC
     FM191600 12010KT P6SM FEW300
     FM200100 15010KT P6SM SCT300=



000
FTUS43 KLOT 190900 AAA
TAFGYY
TAF AMD
KGYY 190900Z 1909/2006 03006KT P6SM SKC
     FM191600 VRB05KT P6SM FEW300
     FM200200 15007KT P6SM SCT300=



000
FTUS43 KLOT 190900 AAA
TAFDPA
TAF AMD
KDPA 190900Z 1909/2006 06006KT P6SM SKC
     FM191600 12009KT P6SM FEW300
     FM200100 16007KT P6SM SCT300=



000
FTUS43 KLOT 190500
TAFGYY
TAF
KGYY 190520Z 1906/2006 03006KT P6SM SKC
     FM191600 VRB05KT P6SM FEW300
     FM200200 15007KT P6SM SCT300=



000
FTUS43 KLOT 190500
TAFDPA
TAF
KDPA 190520Z 1906/2006 06006KT P6SM SKC
     FM191600 12009KT P6SM FEW300
     FM200100 16007KT P6SM SCT300=



000
FTUS43 KLOT 190500
TAFRFD
TAF
KRFD 190520Z 1906/2006 08007KT P6SM FEW300
     FM191630 16012KT P6SM SCT300
     FM200200 15008KT P6SM SCT300=



000
FTUS43 KLOT 190500
TAFMDW
TAF
KMDW 190520Z 1906/2006 05007KT P6SM SKC
     FM191600 12010KT P6SM FEW300
     FM200100 15010KT P6SM SCT300=



000
FTUS43 KLOT 190500
TAFORD
TAF
KORD 190520Z 1906/2012 06006KT P6SM SKC
     FM191500 11010KT P6SM FEW300
     FM200100 15010KT P6SM SCT300
     FM200800 18007KT P6SM SCT250=



000
FTUS43 KLOT 190300 AAA
TAFDPA
TAF AMD
KDPA 190308Z 1903/1924 VRB04KT P6SM SKC
     FM191600 12009KT P6SM FEW350=



000
FTUS43 KLOT 190300 AAA
TAFRFD
TAF AMD
KRFD 190308Z 1903/1924 VRB05KT P6SM SKC
     FM191630 16012KT P6SM FEW350=



000
FTUS43 KLOT 190300 AAA
TAFORD
TAF AMD
KORD 190308Z 1903/2006 04007KT P6SM SKC
     FM191600 11010KT P6SM FEW350
     FM200100 15010KT P6SM SCT300=



000
FTUS43 KLOT 190300 AAA
TAFMDW
TAF AMD
KMDW 190308Z 1903/1924 04007KT P6SM SKC
     FM191600 12010KT P6SM FEW350=



000
FTUS43 KLOT 190300 AAA
TAFGYY
TAF AMD
KGYY 190308Z 1903/1924 VRB05KT P6SM SKC=



000
FTUS43 KLOT 182300
TAFGYY
TAF
KGYY 182320Z 1900/1924 02010KT P6SM SKC
     FM190200 VRB05KT P6SM SKC=



000
FTUS43 KLOT 182300
TAFDPA
TAF
KDPA 182320Z 1900/1924 05009KT P6SM SKC
     FM190300 VRB04KT P6SM SKC
     FM191600 12009KT P6SM FEW350=



000
FTUS43 KLOT 182300
TAFMDW
TAF
KMDW 182320Z 1900/1924 05011KT P6SM SKC
     FM190300 06005KT P6SM SKC
     FM191600 12010KT P6SM FEW350=



000
FTUS43 KLOT 182300
TAFORD
TAF
KORD 182320Z 1900/2006 05011KT P6SM SKC
     FM190100 06005KT P6SM SKC
     FM191600 11010KT P6SM FEW350
     FM200100 15010KT P6SM SCT300=



000
FTUS43 KLOT 182300
TAFRFD
TAF
KRFD 182320Z 1900/1924 VRB05KT P6SM SKC
     FM191630 16012KT P6SM FEW350=



000
FTUS43 KLOT 182100 AAB
TAFDPA
TAF AMD
KDPA 182155Z 1822/1918 05009KT P6SM SKC
     FM190300 VRB04KT P6SM SKC
     FM191600 12009KT P6SM FEW300=



000
FTUS43 KLOT 182100 AAB
TAFGYY
TAF AMD
KGYY 182155Z 1822/1918 02011KT P6SM SKC
     FM190100 VRB05KT P6SM SKC=



000
FTUS43 KLOT 182100 AAB
TAFRFD
TAF AMD
KRFD 182155Z 1822/1918 VRB05KT P6SM SKC
     FM191630 16012KT P6SM FEW300=



000
FTUS43 KLOT 182100 AAB
TAFMDW
TAF AMD
KMDW 182155Z 1822/1918 07011KT P6SM SKC
     FM190300 06005KT P6SM SKC
     FM191600 12010KT P6SM FEW300=



000
FTUS43 KLOT 182100 AAB
TAFORD
TAF AMD
KORD 182155Z 1822/1924 06011KT P6SM SKC
     FM190100 06005KT P6SM SKC
     FM191600 11010KT P6SM FEW300=



000
FTUS43 KLOT 181900 AAA
TAFORD
TAF AMD
KORD 181957Z 1820/1924 06011KT P6SM FEW250
     FM190300 09008KT P6SM FEW200
     FM191500 11010KT P6SM SKC
     FM192100 13012KT P6SM SCT200=



000
FTUS43 KLOT 181900 AAA
TAFDPA
TAF AMD
KDPA 181957Z 1820/1918 06011KT P6SM FEW250
     FM190300 09008KT P6SM FEW200
     FM191500 11010KT P6SM SKC=



000
FTUS43 KLOT 181900 AAA
TAFRFD
TAF AMD
KRFD 181957Z 1820/1918 06007KT P6SM FEW250
     FM190300 09006KT P6SM SKC
     FM191500 11010KT P6SM FEW200
     FM191700 14010KT P6SM FEW080 SCT200=



000
FTUS43 KLOT 181900 AAA
TAFGYY
TAF AMD
KGYY 181957Z 1820/1918 02011KT P6SM FEW250
     FM190300 04008KT P6SM FEW200
     FM191500 10010KT P6SM SKC=



000
FTUS43 KLOT 181900 AAA
TAFMDW
TAF AMD
KMDW 181957Z 1820/1918 06011KT P6SM FEW250
     FM190300 09008KT P6SM FEW200
     FM191500 11010KT P6SM SKC=



000
FTUS43 KLOT 181700
TAFRFD
TAF
KRFD 181736Z 1818/1918 06011KT P6SM FEW250
     FM190300 09008KT P6SM SKC
     FM191500 11010KT P6SM FEW200
     FM191700 14010KT P6SM FEW080 SCT200=



000
FTUS43 KLOT 181700
TAFDPA
TAF
KDPA 181736Z 1818/1918 06011KT P6SM FEW250
     FM190300 09008KT P6SM FEW200
     FM191500 11010KT P6SM SKC=



000
FTUS43 KLOT 181700
TAFMDW
TAF
KMDW 181736Z 1818/1918 06011KT P6SM FEW250
     FM190300 09008KT P6SM FEW200
     FM191500 11010KT P6SM SKC=



000
FTUS43 KLOT 181700
TAFGYY
TAF
KGYY 181736Z 1818/1918 36013G19KT P6SM FEW250
     FM190300 04008KT P6SM FEW200
     FM191500 10010KT P6SM SKC=



000
FTUS43 KLOT 181700
TAFORD
TAF
KORD 181736Z 1818/1924 06011KT P6SM FEW250
     FM190300 09008KT P6SM FEW200
     FM191500 11010KT P6SM SKC
     FM192100 13012KT P6SM SCT200=



000
FTUS43 KLOT 181500 AAB
TAFDPA
TAF AMD
KDPA 181558Z 1816/1912 36007KT P6SM FEW200
     FM181800 04010KT P6SM SCT200
     FM190300 07008KT P6SM FEW200=



000
FTUS43 KLOT 181500 AAB
TAFGYY
TAF AMD
KGYY 181558Z 1816/1912 35008KT P6SM FEW080
     FM181800 01012G17KT P6SM SCT200
     FM190300 05009KT P6SM FEW200=



000
FTUS43 KLOT 181500 AAB
TAFMDW
TAF AMD
KMDW 181558Z 1816/1912 06011KT P6SM FEW080 SCT200
     FM190300 07008KT P6SM SCT200=



000
FTUS43 KLOT 181500 AAB
TAFRFD
TAF AMD
KRFD 181558Z 1816/1912 03006KT P6SM FEW200
     FM181800 07007KT P6SM SCT150
     FM190000 09010KT P6SM SCT150=



000
FTUS43 KLOT 181500 AAB
TAFORD
TAF AMD
KORD 181558Z 1816/1918 06011KT P6SM FEW080 SCT200
     FM190300 07008KT P6SM SCT200
     FM191500 13010KT P6SM SKC=



000
FTUS43 KLOT 181400 AAA
TAFRFD
TAF AMD
KRFD 181401Z 1814/1912 03006KT P6SM FEW200
     FM181600 07007KT P6SM SCT150
     FM190000 09010KT P6SM SCT150=



000
FTUS43 KLOT 181400 AAA
TAFMDW
TAF AMD
KMDW 181401Z 1814/1912 03008KT P6SM FEW080
     FM181700 06012KT P6SM SCT200
     FM190300 07008KT P6SM SCT200=



000
FTUS43 KLOT 181400 AAA
TAFORD
TAF AMD
KORD 181401Z 1814/1918 04008KT P6SM FEW200
     FM181700 06011KT P6SM SCT200
     FM190300 07008KT P6SM SCT200
     FM191500 13010KT P6SM SKC=



000
FTUS43 KLOT 181400 AAA
TAFGYY
TAF AMD
KGYY 181401Z 1814/1912 35008KT P6SM FEW080
     FM181600 02012G17KT P6SM SCT200
     FM190300 05009KT P6SM FEW200=



000
FTUS43 KLOT 181400 AAA
TAFDPA
TAF AMD
KDPA 181401Z 1814/1912 36007KT P6SM FEW200
     FM181800 04010KT P6SM SCT200
     FM190300 07008KT P6SM FEW200=



000
FTUS43 KLOT 181100
TAFORD
TAF
KORD 181127Z 1812/1918 01008KT P6SM FEW200
     FM181700 05011KT P6SM SCT200
     FM190300 07008KT P6SM SCT200
     FM191500 13010KT P6SM SKC=



000
FTUS43 KLOT 181100
TAFDPA
TAF
KDPA 181127Z 1812/1912 36007KT P6SM FEW200
     FM181800 04010KT P6SM SCT200
     FM190300 07008KT P6SM FEW200=



000
FTUS43 KLOT 181100
TAFGYY
TAF
KGYY 181127Z 1812/1912 35008KT P6SM BKN080
     FM181600 02012G17KT P6SM SCT200
     FM190300 05009KT P6SM FEW200=



000
FTUS43 KLOT 181100
TAFMDW
TAF
KMDW 181127Z 1812/1912 02008KT P6SM SCT080
     FM181700 06012KT P6SM SCT200
     FM190300 07008KT P6SM SCT200=



000
FTUS43 KLOT 181100
TAFRFD
TAF
KRFD 181127Z 1812/1912 03006KT P6SM FEW200
     FM181600 07007KT P6SM SCT150
     FM190000 09010KT P6SM SCT150=



000
FTUS43 KLOT 180900 AAA
TAFDPA
TAF AMD
KDPA 180924Z 1809/1906 02007KT P6SM FEW040
     FM181900 05010KT P6SM FEW050
     FM190300 07008KT P6SM FEW200=



000
FTUS43 KLOT 180900 AAA
TAFMDW
TAF AMD
KMDW 180924Z 1809/1906 03008KT P6SM FEW040
     FM181800 06012KT P6SM FEW050
     FM190300 07008KT P6SM FEW200=



000
FTUS43 KLOT 180900 AAA
TAFRFD
TAF AMD
KRFD 180924Z 1809/1906 35006KT P6SM SCT045 SCT150
     FM181200 03006KT P6SM SKC
     FM181600 07006KT P6SM FEW050
     FM190000 09010KT P6SM FEW200=



000
FTUS43 KLOT 180900 AAA
TAFGYY
TAF AMD
KGYY 180924Z 1809/1906 01008KT P6SM SCT040 OVC070
     FM181200 01008KT P6SM SCT150
     FM181800 02012KT P6SM SCT040
     FM190400 05008KT P6SM FEW200=



000
FTUS43 KLOT 180900 AAA
TAFORD
TAF AMD
KORD 180924Z 1809/1912 03008KT P6SM FEW040
     FM181800 05011KT P6SM FEW050
     FM190300 07008KT P6SM FEW200=



000
FTUS43 KLOT 180500
TAFDPA
TAF
KDPA 180530Z 1806/1906 34005KT P6SM SCT040 BKN120
     FM180900 02007KT P6SM SCT040
     FM181900 05010KT P6SM FEW050
     FM190300 07008KT P6SM FEW200=



000
FTUS43 KLOT 180500
TAFMDW
TAF
KMDW 180530Z 1806/1906 03005KT P6SM SCT040 BKN120
     FM181000 03007KT P6SM SCT040
     FM181800 06012KT P6SM FEW050
     FM190300 07008KT P6SM FEW200=



000
FTUS43 KLOT 180500
TAFGYY
TAF
KGYY 180530Z 1806/1906 01008KT P6SM SCT040 OVC070
     FM181200 01008KT P6SM SCT150
     FM181800 02012KT P6SM SCT040
     FM190400 05008KT P6SM FEW200=



000
FTUS43 KLOT 180500
TAFORD
TAF
KORD 180530Z 1806/1912 34005KT P6SM SCT040 BKN120
     FM180900 03007KT P6SM SCT040
     FM181800 05011KT P6SM FEW050
     FM190300 07008KT P6SM FEW200=



000
FTUS43 KLOT 180500
TAFRFD
TAF
KRFD 180530Z 1806/1906 35006KT P6SM SCT045 SCT150
     FM181200 03006KT P6SM SKC
     FM181600 07006KT P6SM FEW050
     FM190000 09010KT P6SM FEW200=



000
FTUS43 KLOT 180200 AAB
TAFMDW
TAF AMD
KMDW 180242Z 1803/1824 27006KT P6SM OVC100
     FM180500 06005KT P6SM SCT040 BKN100
     FM180900 03007KT P6SM SCT050
     FM181600 06010KT P6SM FEW050=



000
FTUS43 KLOT 180200 AAB
TAFORD
TAF AMD
KORD 180242Z 1803/1906 26005KT P6SM BKN100
     FM180500 06005KT P6SM SCT040 BKN100
     FM180900 03007KT P6SM SCT050
     FM181600 06010KT P6SM FEW050
     FM190100 07007KT P6SM SCT100=



000
FTUS43 KLOT 180200 AAB
TAFDPA
TAF AMD
KDPA 180242Z 1803/1824 26005KT P6SM OVC100
     FM180400 VRB03KT P6SM SCT040 BKN100
     FM180600 05005KT P6SM SCT030 BKN080
     FM181100 03007KT P6SM SCT040
     FM181600 06010KT P6SM FEW040=



000
FTUS43 KLOT 180200 AAB
TAFGYY
TAF AMD
KGYY 180242Z 1803/1824 28006KT P6SM BKN080
     FM180500 03006KT P6SM SCT040 BKN100
     FM180600 05008KT P6SM SCT030 BKN080
     FM181100 01008KT P6SM SCT150
     FM181600 03010KT P6SM SCT040=



000
FTUS43 KLOT 180200 AAB
TAFRFD
TAF AMD
KRFD 180242Z 1803/1824 VRB03KT P6SM BKN045 OVC250
     FM180800 03005KT P6SM SCT250
     FM181600 VRB03KT P6SM SCT100=



000
FTUS43 KLOT 180100 AAA
TAFORD
TAF AMD
KORD 180155Z 1802/1906 29013KT P6SM FEW040 BKN150
     FM180400 06005KT P6SM SCT040 BKN100
     FM180900 03007KT P6SM SCT050
     FM181600 06010KT P6SM FEW050
     FM190100 07007KT P6SM SCT100=



000
FTUS43 KLOT 180100 AAA
TAFDPA
TAF AMD
KDPA 180155Z 1802/1824 25008KT P6SM FEW040 BKN150
     FM180400 VRB03KT P6SM SCT040 BKN100
     FM180600 05005KT P6SM SCT030 BKN080
     FM181100 03007KT P6SM SCT040
     FM181600 06010KT P6SM FEW040=



000
FTUS43 KLOT 180100 AAA
TAFGYY
TAF AMD
KGYY 180155Z 1802/1824 27010KT P6SM FEW040 BKN120
     FM180400 03006KT P6SM SCT040 BKN100
     FM180600 05008KT P6SM SCT030 BKN080
     FM181100 01008KT P6SM SCT150
     FM181600 03010KT P6SM SCT040=



000
FTUS43 KLOT 180100 AAA
TAFMDW
TAF AMD
KMDW 180155Z 1802/1824 28012KT P6SM FEW040 BKN150
     FM180400 06005KT P6SM SCT040 BKN100
     FM180900 03007KT P6SM SCT050
     FM181600 06010KT P6SM FEW050=



000
FTUS43 KLOT 180100 AAA
TAFRFD
TAF AMD
KRFD 180155Z 1802/1824 VRB03KT P6SM SCT040 BKN250
     FM180800 03005KT P6SM FEW250
     FM181600 VRB03KT P6SM SCT100=



000
FTUS43 KLOT 172300
TAFMDW
TAF
KMDW 172330Z 1800/1824 28012KT P6SM FEW040 BKN150
     FM180200 06005KT P6SM SCT040 BKN100
     FM180900 03007KT P6SM SCT050
     FM181600 06010KT P6SM FEW050=



000
FTUS43 KLOT 172300
TAFDPA
TAF
KDPA 172330Z 1800/1824 25008KT P6SM FEW040 BKN150
     FM180200 VRB03KT P6SM SCT040 BKN100
     FM180600 05005KT P6SM SCT030 BKN080
     FM181100 03007KT P6SM SCT040
     FM181600 06010KT P6SM FEW040=



000
FTUS43 KLOT 172300
TAFRFD
TAF
KRFD 172330Z 1800/1824 30010KT P6SM FEW040 OVC250
     FM180100 30004KT P6SM SCT025 BKN100
     FM180300 34005KT P6SM SCT030 BKN120
     FM180800 03005KT P6SM FEW250
     FM181600 VRB03KT P6SM SCT100=



000
FTUS43 KLOT 172300
TAFGYY
TAF
KGYY 172330Z 1800/1824 27010KT P6SM FEW040 BKN120
     FM180200 03006KT P6SM SCT040 BKN100
     FM180500 05008KT P6SM SCT030 BKN080
     FM181100 01008KT P6SM SCT150
     FM181600 03010KT P6SM SCT040=



000
FTUS43 KLOT 172300
TAFORD
TAF
KORD 172330Z 1800/1906 29013KT P6SM FEW040 BKN150
     FM180200 06005KT P6SM SCT040 BKN100
     FM180900 03007KT P6SM SCT050
     FM181600 06010KT P6SM FEW050
     FM190100 07007KT P6SM SCT100=



000
FTUS43 KLOT 172100 AAB
TAFDPA
TAF AMD
KDPA 172154Z 1722/1818 25012KT P6SM FEW040 BKN150
     FM180100 31004KT P6SM SCT040 BKN100
     FM180500 36004KT P6SM SCT030 BKN080
     FM181100 03007KT P6SM SCT050=



000
FTUS43 KLOT 172100 AAB
TAFORD
TAF AMD
KORD 172154Z 1722/1824 26013KT P6SM FEW040 BKN150
     FM180100 31004KT P6SM SCT040 BKN100
     FM180500 01004KT P6SM SCT030 BKN080
     FM180900 03007KT P6SM SCT050
     FM181700 06010KT P6SM FEW050=



000
FTUS43 KLOT 172100 AAB
TAFRFD
TAF AMD
KRFD 172154Z 1722/1818 25010KT P6SM FEW040 OVC250
     FM180100 30004KT P6SM SCT025 BKN100
     FM180300 34005KT P6SM SCT030 BKN120
     FM180800 03005KT P6SM FEW250=



000
FTUS43 KLOT 172100 AAB
TAFGYY
TAF AMD
KGYY 172154Z 1722/1818 24010KT P6SM FEW040 BKN120
     FM180100 28004KT P6SM SCT040 BKN100
     FM180500 35004KT P6SM SCT030 BKN080
     FM181100 01008KT P6SM SCT150=



000
FTUS43 KLOT 172100 AAB
TAFMDW
TAF AMD
KMDW 172154Z 1722/1818 25012KT P6SM FEW040 BKN150
     FM180100 31004KT P6SM SCT040 BKN100
     FM180500 01004KT P6SM SCT030 BKN080
     FM180900 03007KT P6SM SCT050=



000
FTUS43 KLOT 172000 AAA
TAFGYY
TAF AMD
KGYY 172004Z 1720/1818 24013G20KT P6SM BKN250
     FM172100 24010KT P6SM FEW030 BKN120
     FM180100 28004KT P6SM SCT040 BKN100
     FM180500 35004KT P6SM SCT030 BKN080
     FM181100 01008KT P6SM SCT150=



000
FTUS43 KLOT 172000 AAA
TAFRFD
TAF AMD
KRFD 172004Z 1720/1818 27012KT P6SM FEW030 OVC250
     FM180100 30004KT P6SM SCT025 BKN100
     FM180300 34005KT P6SM SCT030 BKN120
     FM180800 03005KT P6SM FEW250=



000
FTUS43 KLOT 172000 AAA
TAFORD
TAF AMD
KORD 172004Z 1720/1824 27013KT P6SM FEW030 BKN250
     FM180100 31004KT P6SM SCT040 BKN100
     FM180500 01004KT P6SM SCT030 BKN080
     FM180900 03007KT P6SM SCT050
     FM181700 06010KT P6SM FEW050=



000
FTUS43 KLOT 172000 AAA
TAFDPA
TAF AMD
KDPA 172004Z 1720/1818 24013KT P6SM FEW030 BKN250
     FM180100 31004KT P6SM SCT040 BKN100
     FM180500 36004KT P6SM SCT030 BKN080
     FM181100 03007KT P6SM SCT050=



000
FTUS43 KLOT 172000 AAA
TAFMDW
TAF AMD
KMDW 172004Z 1720/1818 27013KT P6SM FEW030 BKN250
     FM180100 31004KT P6SM SCT040 BKN100
     FM180500 01004KT P6SM SCT030 BKN080
     FM180900 03007KT P6SM SCT050=



000
FTUS43 KLOT 171700
TAFMDW
TAF
KMDW 171734Z 1718/1818 23013G22KT P6SM FEW030 SCT250
     FM171900 24010KT P6SM FEW030 BKN250
     FM180100 31004KT P6SM SCT040 BKN100
     FM180500 36004KT P6SM SCT030 BKN080
     FM181100 03007KT P6SM SCT050=



000
FTUS43 KLOT 171700
TAFORD
TAF
KORD 171734Z 1718/1824 23013G22KT P6SM FEW030 SCT250
     FM171900 24010KT P6SM FEW030 BKN250
     FM180100 31004KT P6SM SCT040 BKN100
     FM180500 36004KT P6SM SCT030 BKN080
     FM181100 03007KT P6SM SCT050
     FM181700 07010KT P6SM FEW050=



000
FTUS43 KLOT 171700
TAFGYY
TAF
KGYY 171734Z 1718/1818 23013G20KT P6SM SCT250
     FM172100 24010KT P6SM FEW030 BKN120
     FM180100 28004KT P6SM SCT040 BKN100
     FM180500 35004KT P6SM SCT030 BKN080
     FM181100 01008KT P6SM SCT150=



000
FTUS43 KLOT 171700
TAFDPA
TAF
KDPA 171734Z 1718/1818 23013G20KT P6SM FEW030 SCT250
     FM171900 24010KT P6SM FEW030 BKN250
     FM180100 31004KT P6SM SCT040 BKN100
     FM180500 36004KT P6SM SCT030 BKN080
     FM181100 03007KT P6SM SCT050=



000
FTUS43 KLOT 171700
TAFRFD
TAF
KRFD 171734Z 1718/1818 27012KT P6SM BKN023 OVC250
     FM172100 27010KT P6SM SCT025 BKN250
     FM180100 29004KT P6SM SCT025 BKN100
     FM180300 34005KT P6SM SCT030 BKN120
     FM180900 03005KT P6SM FEW250=



000
FTUS43 KLOT 171600 AAB
TAFGYY
TAF AMD
KGYY 171600Z 1716/1812 21013G20KT P6SM SCT250
     FM172000 24010KT P6SM SCT030 BKN120
     FM180500 31004KT P6SM SCT030 BKN080
     FM181100 01005KT P6SM SCT150=



000
FTUS43 KLOT 171600 AAB
TAFORD
TAF AMD
KORD 171600Z 1716/1818 23013G22KT P6SM SCT250
     FM171900 24010KT P6SM SCT030 BKN120
     FM180100 31004KT P6SM SCT030 BKN080
     FM181100 02005KT P6SM SCT150=



000
FTUS43 KLOT 171600 AAB
TAFRFD
TAF AMD
KRFD 171600Z 1716/1812 26012KT P6SM BKN025 OVC250
     FM171800 27010KT P6SM SCT030 BKN150
     FM180300 30005KT P6SM SCT030 BKN120=



000
FTUS43 KLOT 171600 AAB
TAFMDW
TAF AMD
KMDW 171600Z 1716/1812 23013G22KT P6SM SCT250
     FM172000 24010KT P6SM SCT030 BKN120
     FM180300 31004KT P6SM SCT030 BKN080
     FM181100 02005KT P6SM SCT150=



000
FTUS43 KLOT 171600 AAB
TAFDPA
TAF AMD
KDPA 171600Z 1716/1812 23013G20KT P6SM SCT250
     FM171900 24010KT P6SM SCT030 BKN120
     FM180100 31004KT P6SM SCT030 BKN080
     FM181100 02005KT P6SM SCT150=



000
FTUS43 KLOT 171300 AAA
TAFRFD
TAF AMD
KRFD 171357Z 1714/1812 21012G18KT P6SM BKN018
     FM171500 26012KT P6SM BKN020
     FM171800 27010KT P6SM SCT030 BKN150
     FM180300 30005KT P6SM SCT030 BKN120=



000
FTUS43 KLOT 171300 AAA
TAFGYY
TAF AMD
KGYY 171357Z 1714/1812 18010G19KT P6SM FEW250
     FM171500 21013G20KT P6SM FEW250
     FM172000 24010KT P6SM SCT030 BKN120
     FM180500 31004KT P6SM SCT030 BKN080
     FM181100 01005KT P6SM SCT150=



000
FTUS43 KLOT 171300 AAA
TAFMDW
TAF AMD
KMDW 171357Z 1714/1812 21013G22KT P6SM FEW250
     FM172000 24010KT P6SM SCT030 BKN120
     FM180300 31004KT P6SM SCT030 BKN080
     FM181100 02005KT P6SM SCT150=



000
FTUS43 KLOT 171300 AAA
TAFORD
TAF AMD
KORD 171357Z 1714/1818 21013G22KT P6SM FEW250
     FM171900 24010KT P6SM SCT030 BKN120
     FM180100 31004KT P6SM SCT030 BKN080
     FM181100 02005KT P6SM SCT150=



000
FTUS43 KLOT 171300 AAA
TAFDPA
TAF AMD
KDPA 171357Z 1714/1812 21013G20KT P6SM FEW250
     FM171900 24010KT P6SM SCT030 BKN120
     FM180100 31004KT P6SM SCT030 BKN080
     FM181100 02005KT P6SM SCT150=



000
FTUS43 KLOT 171100
TAFRFD
TAF
KRFD 171135Z 1712/1812 18012G18KT P6SM BKN060
     FM171300 21012G18KT P6SM BKN015
     FM171500 26012KT P6SM BKN020
     FM171800 27010KT P6SM SCT030 BKN150
     FM180300 30005KT P6SM SCT030 BKN120=



000
FTUS43 KLOT 171100
TAFDPA
TAF
KDPA 171135Z 1712/1812 18010G16KT P6SM BKN100
     FM171400 21013G20KT P6SM SCT030 BKN150
     FM172000 24010KT P6SM SCT030 BKN120
     FM180100 31004KT P6SM SCT030 BKN080
     FM181100 02005KT P6SM SCT150=



000
FTUS43 KLOT 171100
TAFORD
TAF
KORD 171135Z 1712/1818 18010G16KT P6SM BKN100
     FM171500 21013G20KT P6SM SCT030 BKN150
     FM172000 24010KT P6SM SCT030 BKN120
     FM180100 31004KT P6SM SCT030 BKN080
     FM181100 02005KT P6SM SCT150=



000
FTUS43 KLOT 171100
TAFMDW
TAF
KMDW 171135Z 1712/1812 18010G16KT P6SM BKN100
     FM171500 21013G20KT P6SM SCT030 BKN150
     FM172000 24010KT P6SM SCT030 BKN120
     FM180300 31004KT P6SM SCT030 BKN080
     FM181100 02005KT P6SM SCT150=



000
FTUS43 KLOT 171100
TAFGYY
TAF
KGYY 171135Z 1712/1812 18010G16KT P6SM BKN100
     FM171500 21013G20KT P6SM SCT030 BKN150
     FM172000 24010KT P6SM SCT030 BKN120
     FM180500 31004KT P6SM SCT030 BKN080
     FM181100 01005KT P6SM SCT150=



000
FTUS43 KLOT 171000 AAB
TAFRFD
TAF AMD
KRFD 171009Z 1710/1806 17012KT P6SM BKN060 WS020/20045KT
     FM171300 22012KT P6SM BKN015
     FM171500 26012G18KT P6SM BKN020
     FM171800 28010KT P6SM SCT030 BKN150
     FM180300 03005KT P6SM SCT040 BKN250=



000
FTUS43 KLOT 170900 AAA
TAFGYY
TAF AMD
KGYY 170907Z 1709/1806 17010G16KT P6SM BKN050 WS020/21040KT
     FM171400 23012G18KT P6SM SCT040 SCT180
     FM180000 29007KT P6SM BKN040 BKN180=



000
FTUS43 KLOT 170900 AAA
TAFORD
TAF AMD
KORD 170907Z 1709/1812 17010G16KT P6SM BKN050 WS020/21040KT
     FM171400 23012G18KT P6SM SCT040 SCT180
     FM180000 29007KT P6SM BKN040 BKN180
     FM180600 03006KT P6SM BKN040 BKN150=



000
FTUS43 KLOT 170900 AAA
TAFDPA
TAF AMD
KDPA 170907Z 1709/1806 17010G16KT P6SM BKN050 WS020/20040KT
     FM171400 23012G18KT P6SM SCT040 SCT180
     FM180000 29007KT P6SM BKN040 BKN180=



000
FTUS43 KLOT 170900 AAA
TAFRFD
TAF AMD
KRFD 170907Z 1709/1806 17012KT P6SM BKN050 WS020/20045KT
     FM171400 24012G18KT P6SM SCT025 BKN040 BKN180
     FM172000 29010KT P6SM BKN040
     FM180300 03005KT P6SM SCT040 BKN250=



000
FTUS43 KLOT 170900 AAA
TAFMDW
TAF AMD
KMDW 170907Z 1709/1806 17010G16KT P6SM BKN050 WS020/21040KT
     FM171400 23012G18KT P6SM SCT040 SCT180
     FM180000 29007KT P6SM BKN040 BKN180=



000
FTUS43 KLOT 170500
TAFRFD
TAF
KRFD 170526Z 1706/1806 16016KT P6SM BKN100 WS020/19041KT
     FM170900 17010KT P6SM BKN050 WS020/20045KT
     FM171400 24012G18KT P6SM SCT025 BKN040 BKN180
     FM172000 29010KT P6SM BKN040
     FM180300 03005KT P6SM SCT040 BKN250=



000
FTUS43 KLOT 170500
TAFORD
TAF
KORD 170526Z 1706/1812 15011KT P6SM BKN120
     FM170900 17010KT P6SM BKN050 WS020/21040KT
     FM171400 23012G18KT P6SM SCT040 SCT180
     FM180000 29007KT P6SM BKN040 BKN180
     FM180600 03006KT P6SM BKN040 BKN150=



000
FTUS43 KLOT 170500
TAFMDW
TAF
KMDW 170526Z 1706/1806 16015KT P6SM BKN120
     FM170900 17010KT P6SM BKN050 WS020/21040KT
     FM171400 23012G18KT P6SM SCT040 SCT180
     FM180000 29007KT P6SM BKN040 BKN180=



000
FTUS43 KLOT 170500
TAFGYY
TAF
KGYY 170526Z 1706/1806 15015KT P6SM BKN120
     FM170900 17010KT P6SM BKN050 WS020/21040KT
     FM171400 23012G18KT P6SM SCT040 SCT180
     FM180000 29007KT P6SM BKN040 BKN180=



000
FTUS43 KLOT 170500
TAFDPA
TAF
KDPA 170526Z 1706/1806 16015KT P6SM BKN120
     FM170900 17010KT P6SM BKN050 WS020/20040KT
     FM171400 23012G18KT P6SM SCT040 SCT180
     FM180000 29007KT P6SM BKN040 BKN180=



    US Dept of Commerce
    National Oceanic and Atmospheric Administration
    National Weather Service
    1325 East West Highway
    Silver Spring, MD 20910
    Page Author: NWS Internet Services Team
Disclaimer
Information Quality
Credits
Glossary
Privacy Policy
Freedom of Information Act (FOIA)
About Us
Career Opportunities